Sawyer, Oklahoma
Current Conditions -  °F | °C
As of 12:55 AM on Friday 28 Nov 2014 (Local Time) from KHHW Reporting Station
Clear Clear  
Wind Chill: 34°   Ceiling: Unl
Heat Index: 38°   Visibility: 10mi
Dew Point: 28°   Wind: 5mph
Humidity: 66%   Direction: 140°SE
Pressure: 30.34"   Gusts: NA
Location:  34.01°N, 95.37°W
Report Text: KHHW 280655Z AUTO 14004KT 10SM CLR 03/M02 A3034 RMK AO2 T00331025
Loading
Personal Weather Stations






























Interactive Weather Map New forecast layout! Learn more

10-Day Weather Forecast

Advertisements
Track Severe Weather on mobile